METAR AND TAF INFORMATION
METAR FOR LEPA
ADDS - METARS form results

(2316 UTC 22 May 2018)
Data provider http://aviationweather.gov/adds/metars/
 
METAR text: LEPA 222300Z VRB01KT 9000 FEW006 BKN011 18/17 Q1017 TEMPO BKN006
Conditions at: LEPA (PALMA DE MALLORC, ES) observed 2300 UTC 22 May 2018
Temperature: 18.0°C (64°F)
Dewpoint: 17.0°C (63°F) [RH = 94%]
Pressure (altimeter): 30.03 inches Hg (1017.0 mb)
Winds: variable direction winds at 1 MPH (1 knots; 0.5 m/s)
Visibility: 6 miles (9 km)
Ceiling: 1100 feet AGL
Clouds: few clouds at 600 feet AGL
broken clouds at 1100 feet AGL
Weather: no significant weather observed at this time

METAR text: LEPA 222230Z 16002KT 9000 BKN010 17/17 Q1017 NOSIG
Conditions at: LEPA (PALMA DE MALLORC, ES) observed 2230 UTC 22 May 2018
Temperature: 17.0°C (63°F)
Dewpoint: 17.0°C (63°F) [RH = 100%]
Pressure (altimeter): 30.03 inches Hg (1017.0 mb)
Winds: from the SSE (160 degrees) at 2 MPH (2 knots; 1.0 m/s)
Visibility: 6 miles (9 km)
Ceiling: 1000 feet AGL
Clouds: broken clouds at 1000 feet AGL
Weather: no significant weather observed at this time

Forecast for: LEPA (PALMA DE MALLORC, ES)
Text: TAF AMD LEPA 222231Z 2222/2318 VRB04KT 9999 FEW025 TX26/2312Z TN13/2306Z
Forecast period: 2200 UTC 22 May 2018 to 1000 UTC 23 May 2018
Forecast type: FROM: standard forecast or significant change
Winds: variable direction winds at 5 MPH (4 knots; 2.1 m/s)
Visibility: 6 or more miles (10+ km)
Clouds: few clouds at 2500 feet AGL
Weather: no significant weather forecast for this period
Forecast for: LEPA (PALMA DE MALLORC, ES)
Text: TAF AMD LEPA 222231Z 2222/2318 VRB04KT 9999 FEW025 TX26/2312Z TN13/2306Z
Forecast period: 2200 UTC 22 May 2018 to 1000 UTC 23 May 2018
Forecast type: FROM: standard forecast or significant change
Winds: variable direction winds at 5 MPH (4 knots; 2.1 m/s)
Visibility: 6 or more miles (10+ km)
Clouds: few clouds at 2500 feet AGL
Weather: no significant weather forecast for this period
Forecast for: LEPA (PALMA DE MALLORC, ES)
Text: TAF AMD LEPA 222231Z 2222/2318 VRB04KT 9999 FEW025 TX26/2312Z TN13/2306Z
Forecast period: 2200 UTC 22 May 2018 to 0600 UTC 23 May 2018
Forecast type: TEMPORARY: The following changes expected for less than half the time period
Ceiling: 1000 feet AGL
Clouds: broken clouds at 1000 feet AGL
Weather: no significant weather forecast for this period
Forecast for: LEPA (PALMA DE MALLORC, ES)
Text: TAF AMD LEPA 222231Z 2222/2318 VRB04KT 9999 FEW025 TX26/2312Z TN13/2306Z
Forecast period: 2200 UTC 22 May 2018 to 0600 UTC 23 May 2018
Forecast type: TEMPORARY: The following changes expected for less than half the time period
Ceiling: 1000 feet AGL
Clouds: broken clouds at 1000 feet AGL
Weather: no significant weather forecast for this period
Forecast for: LEPA (PALMA DE MALLORC, ES)
Text: TAF AMD LEPA 222231Z 2222/2318 VRB04KT 9999 FEW025 TX26/2312Z TN13/2306Z
Forecast period: 0000 to 0600 UTC 23 May 2018
Forecast type: TEMPORARY: The following changes expected for less than half the time period
Visibility: 1.24 miles (2.00 km)
Weather: BR  (mist)
Forecast for: LEPA (PALMA DE MALLORC, ES)
Text: TAF AMD LEPA 222231Z 2222/2318 VRB04KT 9999 FEW025 TX26/2312Z TN13/2306Z
Forecast period: 0000 to 0600 UTC 23 May 2018
Forecast type: TEMPORARY: The following changes expected for less than half the time period
Visibility: 1.24 miles (2.00 km)
Weather: BR  (mist)
Forecast for: LEPA (PALMA DE MALLORC, ES)
Text: TAF AMD LEPA 222231Z 2222/2318 VRB04KT 9999 FEW025 TX26/2312Z TN13/2306Z
Forecast period: 1000 to 1800 UTC 23 May 2018
Forecast type: BECOMING: Conditions expected to become as follows by 1200 UTC 23 May 2018
Winds: from the SW (230 degrees) at 12 MPH (10 knots; 5.2 m/s)
Visibility: 6 or more miles (10+ km)
Clouds: few clouds at 2500 feet AGL
Weather: no significant weather forecast for this period
Forecast for: LEPA (PALMA DE MALLORC, ES)
Text: TAF AMD LEPA 222231Z 2222/2318 VRB04KT 9999 FEW025 TX26/2312Z TN13/2306Z
Forecast period: 1000 to 1800 UTC 23 May 2018
Forecast type: BECOMING: Conditions expected to become as follows by 1200 UTC 23 May 2018
Winds: from the SW (230 degrees) at 12 MPH (10 knots; 5.2 m/s)
Visibility: 6 or more miles (10+ km)
Clouds: few clouds at 2500 feet AGL
Weather: no significant weather forecast for this period

 AIRPORT MAP

 RUNWAY INFORMATION
Runway 06L Runway length 10728 ft Runway width 148 ft
Runway elevation 15 ft Runway displaced threshold 0 ft Runway heading 59
Runway 24R Runway length 10728 ft Runway width 148 ft
Runway elevation 8 ft Runway displaced threshold 230 ft Runway heading 239
Runway 06R Runway length 9842 ft Runway width 148 ft
Runway elevation 24 ft Runway displaced threshold 1345 ft Runway heading 59
Runway 24L Runway length 9842 ft Runway width 148 ft
Runway elevation 8 ft Runway displaced threshold 0 ft Runway heading 239

 AIRPORT FREQUENCIES
Type APP Name APP Frequency 118.95 MHZ
Type ATIS Name ATIS Frequency 119.25 MHZ
Type CLD Name CLNC DEL Frequency 121.6 MHZ
Type GND Name GND Frequency 121.7 MHZ
Type OPS Name OPS Frequency 130.25 MHZ
Type TWR Name TWR Frequency 118.3 MHZ

 AIRPORT NEAR NAVIGATION AIDS



Powered by Virtual Airlines Manager [v2.6.2]